Aviation Digital Data Service (ADDS)

Output produced by METARs form (0006 UTC 26 June 2019)
found at http://aviationweather.gov/metar/data/
 
MGGT 260000Z 18006KT 9999 SCT018 BKN200 22/16 Q1024 A3024
MGGT 252300Z 23004KT 9999 FEW022TCU SCT200 23/17 Q1022 A3018 FEW090 TCU SBR STN CB/PCPN DIST SSE/S/SSW
MGGT 252200Z 09006KT 9999 FEW022 FEW026CB BKN090 25/15 Q1023 A3021 FEW200 CB/PCPN SSE/S/SSW REDZ
MGGT 252115Z 06010KT 9999 -DZ FEW022 FEW026CB SCT090 CB SE/SSE/S/SSW/SW
MGGT 252100Z 03012KT 9999 TS FEW022 FEW026CB SCT090 27/15 Q1023 A3021 SCT200 CB/TS/PCPN SE/SSE CB/PCPN S CB E/ESE
MGGT 252000Z 02012KT 9999 FEW022 FEW026CB BKN200 27/16 Q1023 A3021 CB/PCPN SE/SSE CB ESE
MGGT 251900Z 36014KT 9999 SCT020TCU BKN200 26/15 Q1024 A3024 TCU E/SE
MGGT 251800Z 36014KT 9999 FEW020 BKN200 26/15 Q1025 A3027
MGGT 251700Z 36010KT 9999 FEW020 SCT200 25/16 Q1025 A3027
MGGT 251600Z 36012KT 9999 FEW018 23/17 Q1026 A3030
MGGT 251500Z 36014KT 9999 SCT015 21/16 Q1026 A3030 METAR
MGGT 251400Z 36014KT 9999 BKN014 20/17 Q1026 A3030
MGGT 251300Z 36010KT 9999 BKN012 18/16 Q1026 A3030
MGGT 251200Z 36010KT 9999 FEW014 BKN017 18/16 Q1025 A3027
MGGT 251100Z 36008KT 9999 SCT014 BKN080 18/16 Q1025 A3027
MGGT 251000Z 36006KT 9999 FEW014 BKN080 18/16 Q1025 A3027
MGGT 250900Z 36006KT 9999 SCT014 BKN080 18/16 Q1025 A3027
MGGT 250800Z 36004KT 8000 FEW004 BKN014 18/14 Q1025 A3027 BR
MGGT 250700Z 00000KT 8000 SCT014 SCT070 18/16 Q1025 A3027 BR
MGGT 250600Z VRB03KT 8000 FEW016 18/16 Q1026 A3030 BR
MGGT 250500Z 00000KT 8000 FEW016 18/16 Q1026 A3030 BR
MGGT 250400Z 00000KT CAVOK 20/16 Q1026 A3030
MGGT 250300Z 00000KT CAVOK 20/13 Q1025 A3027
MGGT 250200Z 00000KT CAVOK 21/13 Q1025 A3027
MGGT 250100Z 18004KT 9999 FEW018 SCT200 23/13 Q1024 A3024 FEW070
MGGT 250000Z 18006KT 9999 FEW020 SCT070 BKN200 25/12 Q1024 A3024
MGGT 242300Z 14008KT 9999 SCT020 SCT200 25/13 Q1024 A3024 FEW080
MGGT 242200Z 18006KT 9999 SCT020 SCT200 26/13 Q1023 A3021
MGGT 242100Z VRB03KT 9999 SCT020TCU FEW025CB 25/16 Q1024 A3024 FEW200 CB NW/NNW TCU W
MGGT 242000Z 19006KT 9999 SCT020TCU FEW025CB 25/17 Q1025 A3027 CB W/WNW TCU ENE
MGGT 241930Z 18008KT 9999 BKN020 FEW025CB FEW200 CB/SBR STN
MGGT 241900Z 00000KT 9999 BKN020TCU 25/16 Q1025 A3027 FEW200 TCU W
MGGT 241800Z 36004KT 9999 SCT020 SCT200 24/17 Q1026 A3030
MGGT 241700Z 03010KT 9999 SCT020 BKN200 24/16 Q1026 A3030
MGGT 241600Z 36008KT 9999 FEW020 BKN200 22/16 Q1026 A3030
MGGT 241500Z 36008KT 9999 FEW020 OVC200 21/16 Q1027 A3033
MGGT 241400Z 36010KT 9999 SCT018 BKN200 19/17 Q1027 A3033
MGGT 241300Z 33006KT 9999 SCT014 BKN200 18/17 Q1026 A3030
MGGT 241200Z 34006KT 8000 BKN010 18/17 Q1025 A3027 BR
MGGT 241100Z 36006KT 8000 BKN012 18/17 Q1025 A3027 BR
MGGT 241000Z 04004KT 9999 BKN014 19/17 Q1025 A3027 FEW080
MGGT 240900Z 00000KT 9999 BKN016 SCT080 19/17 Q1025 A3027
MGGT 240800Z 27004KT 9999 SCT014 BKN080 19/18 Q1026 A3030
MGGT 240735Z 00000KT 9999 BKN014 BKN080
MGGT 00000KT 9999 RA BKN014 BKN080 19/18 Q1026 A3030
MGGT 00000KT 9999 RA BKN014 BKN080 19/18 Q1026 A3030
MGGT 240700Z 00000KT 9999 RA BKN014 BKN080 19/18 Q1026 A3030
MGGT 240635Z 15006KT 4000 RA BKN014 BKN080
MGGT 240600Z 00000KT 9999 BKN014 19/18 Q1027 A3033 FEW080 CORR/
MGGT 240500Z 35004KT 9999 BKN016 20/18 Q1027 A3033 FEW080
MGGT 240400Z 00000KT 9999 BKN016 20/18 Q1027 A3033
MGGT 240300Z 00000KT 9999 FEW018 20/18 Q1026 A3030 FEW080
MGGT 240200Z 00000KT 9999 FEW018 20/18 Q1026 A3030 FEW080
MGGT 240100Z 00000KT 9999 FEW018 21/19 Q1025 A3027 FEW080 CB DIST SSW/NNW
MGGT 240000Z 18006KT 9999 SCT020TCU SCT080 23/19 Q1025 A3027 TCU N/E/W/NNW
MGGT 232300Z VRB03KT 9999 SCT018TCU FEW025CB 24/16 Q1025 A3027 CB N/SW/WSW TCU SE/S
MGGT 232200Z 36008KT 9999 SCT018TCU FEW025CB 22/17 Q1024 A3024 CB NW/NNW TCU NNE/NE/SSE/S
MGGT 232115Z 36008KT 9999 -TSRA SCT018 BKN025CB CB/TS NE CB SMC/ W
MGGT 232100Z 36008KT 9999 SCT018TCU FEW025CB 23/19 Q1024 A3024 CB/PCPN NE/S/SW/W TCU SSE/SSW
MGGT 232000Z 36008KT 9999 SCT018TCU FEW025CB 23/19 Q1024 A3024 RERA CB/PCPN NE/SW/W TCU SSE/SSW
MGGT 231918Z 36010KT 8000 RA SCT020 FEW024CB BKN080 CB SSW
MGGT 231900Z 36004KT 9999 BKN020TCU FEW024CB 25/16 Q1025 A3027 CB/PCPN SSW TCU ESE/SE/S/SW
MGGT 231800Z 36006KT 9999 BKN020 FEW024CB SCT080 24/16 Q1026 A3030 CB/PCPN SSE CB ESE/SE
MGGT 231700Z 02010KT 9999 SCT020 FEW024CB 24/17 Q1027 A3033 CB SE
MGGT 231600Z 04006KT 9999 SCT018 22/17 Q1027 A3033 FEW200
MGGT 231500Z 36010KT 9999 SCT015 SCT070 21/17 Q1027 A3033 FEW200
MGGT 231400Z 36014KT 9999 BKN014 20/17 Q1026 A3030 FEW200
MGGT 231300Z 36008KT 9999 FEW003 BKN200 19/17 Q1026 A3030 FEW070
MGGT 231236Z 36008KT 9999 FEW002 BKN200
MGGT 231218Z 36008KT 3000N BR SCT002 BKN200
MGGT 231200Z 02008KT 9999 FEW004 SCT070 BKN200 17/17 Q1025 A3027
MGGT 2321135Z 02008KT 9999 SCT018TCU FEW025CB CB/PCPN N/WNW/NW TCU S
MGGT 231100Z 36010KT 9999 FEW014 SCT070 18/17 Q1025 A3027 FEW200
MGGT 231000Z 03008KT 9999 FEW014 SCT080 18/17 Q1025 A3027 FEW200
MGGT 230900Z 04006KT CAVOK 18/17 Q1026 A3030 FEW080 FEW200
MGGT 230800Z 05004KT 9999 FEW014 BKN080 18/18 Q1026 A3030
MGGT 230700Z 02006KT 9999 FEW012 BKN080 19/17 Q1027 A3033
MGGT 230600Z 03006KT 9999 SCT012 BKN090 18/18 Q1027 A3033
MGGT 230500Z 01008KT 9999 SCT013 BKN090 19/17 Q1028 A3036
MGGT 230400Z 36006KT 9999 -RA SCT016 BKN090 18/17 Q1028 A3036
MGGT 230300Z 04008KT 8000 FEW003 SCT016 BKN080 19/17 Q1027 A3033 BR
MGGT 230200Z 04006KT 9999 FEW004 BKN200 19/17 Q1027 A3033
MGGT 230100Z 05006KT 9999 FEW004 OVC100 19/18 Q1026 A3030
MGGT 230000Z VRB03KT 9999 SCT004 OVC090 20/19 Q1025 A3027
MGGT 222333Z 00000KT 9999 FEW004 OVC090
MGGT 222315Z 00000KT 9999 FEW004 FEW024CB BKN090 FEW070 CB/PCPN NW/NNW
MGGT 222300Z 00000KT 9999 -RA FEW004 SCT024CB BKN090 20/19 Q1025 A3027 CB N/NW/NNW
MGGT 222200Z 00000KT 4000N -RA FEW004 BKN024CB BKN090 20/19 Q1025 A3027 CB SMC N
MGGT 222115Z 00000KT 9999 -DZ SCT004 SCT024CB BKN090 CB N/NNE/NE/ENE/E/NNW
MGGT 222100Z 00000KT 2000 RA FEW004 SCT016 SCT022CB BKN090 20/19 Q1025 A3027 CB SMC E
MGGT 222000Z 20004KT 3000S -RA FEW004 SCT020CB BKN090 20/19 Q1025 A3027 BR CB NNE/NE/E/S/W
MGGT 221900Z 18006KT 5000 TSRA SCT020 SCT024CB BKN080 22/18 Q1026 A3030 CB/TS SSE/SE/S/SSW CB E/ESE/W
MGGT 221842Z VRB03KT 5000 TSRA SCT020 SCT024CB BKN080 CB/TS SE/SSE/S/SSW CB E/W
MGGT 221826Z 02006KT 7000 -RA SCT020 SCT024CB BKN080 CB E/SE/SSE/S/SSW/W
MGGT 221800Z 02010KT 9999 SCT020 SCT024CB 25/17 Q1026 A3030 FEW080 FEW200 CB/PCPN SE/SSE/S/SSW CB E/W
MGGT 221700Z 04010KT 9999 SCT020TCU BKN080 25/17 Q1027 A3033 FEW200 TCU ESE/WSW/W
MGGT 221600Z 01008KT 9999 FEW018 SCT080 BKN200 24/17 Q1027 A3033
MGGT 221500Z 00000KT 9999 FEW018 BKN080 22/17 Q1028 A3036 FEW200
MGGT 221400Z 00000KT 9999 FEW018 SCT080 BKN200 20/16 Q1027 A3033
MGGT 221300Z 00000KT 9999 FEW014 SCT080 BKN200 19/16 Q1026 A3030
MGGT 221200Z 36006KT 9999 FEW014 BKN200 17/5 Q1025 A3027
MGGT 221100Z 02006KT 9999 FEW014 17/16 Q1025 A3027
MGGT 221000Z 36008KT CAVOK 18/16 Q1026 A3030 SCT090
MGGT 220900Z 36006KT CAVOK 18/16 Q1026 A3030 BKN090 CB/LTNG DIST S
MGGT 220800Z 03004KT CAVOK 18/16 Q1026 A3030 SCT090 BKN200 CB/LTNG DIST SSE/S
MGGT 220700Z 02008KT 9999 FEW012 BKN200 18/16 Q1026 A3030 CB/LTNG DIST SE/SSE
MGGT 220600Z 34012KT 9999 FEW008 OVC012 18/17 Q1027 A3033
MGGT 220500Z 34010KT 9999 BKN012 19/18 Q1027 A3033
MGGT 220400Z 36008KT 9999 BKN012 SCT080 19/18 Q1028 A3036
MGGT 220300Z 00000KT 9999 -DZ FEW008 OVC080 19/17 Q1027 A3033 CB/LTNG DIST S/SSW/SW/WSW/W
MGGT 220200Z 00000KT 7000 -RA FEW008 SCT013 BKN080 19/17 Q1027 A3033 CB/LTNG DIST SSE
MGGT 220100Z 30004KT 6000 TSRA FEW014 SCT022CB OVC080 19/18 Q1026 A3030 CB/TS/LTNG SE/SSE/S/SSW/SW/SBR STN
MGGT 220000Z 00000KT 5000 S -TSRA FEW016 SCT024CB BKN080 18/18 Q1025 A3027 CB/TS/LTNG SE/SSE CB/TS E/S/SBR STN
MGGT 212327Z 06004KT 5000 TSRA FEW016 FEW024CB BKN080 CB/TS E/ESE/SE/SBR STN
MGGT 212308Z 07012KT 1000 +TSRA SCT016 SCT024CB BKN080 CB/TS LTNG E/SE CB N/NW/NNW/SBR STN APCH CLSD
MGGT 212300Z 12006KT 8000 TS VCSH SCT018 SCT024CB BKN080 21/19 Q1024 A3024 CB/TS/PCPN NE/E/WSW/S CB PCPN SE/SSE/S
MGGT 212245Z 25004KT 9999 SCT020 SCT024CB BKN080 CB/PCPN NE/SE/SSE/S/W/WNW
MGGT 212230Z 27004KT 9999 TSRA SCT020 SCT024CB BKN090 CB/TS ENE/NE/W/WNW
MGGT 212200Z 12006KT 8000 TSRA SCT020 SCT024CB 21/19 Q1024 A3024 CB/TS SMC E/SSW
MGGT 212112Z 18010KT 9999 TSRA BKN020 FEW024CB SCT200 CB/TS ENE/E/ESE CB NE
TAF MGGT 2600/2624 VRB03KT 9999 BKN014 BKN090 TX28/2620Z TN18/2612Z 
     TEMPO 2600/2610 9000 DZ BKN012 
     BECMG 2610/2612 5000 BR BKN010 
     BECMG 2614/2616 SCT018 
     TEMPO 2618/2624 18008KT 8000 VCTSRA SCT018TCU FEW025CB